sensor_id;sensor_type;location;lat;lon;timestamp;P1;durP1;ratioP1;P2;durP2;ratioP2
37169;SDS011;23062;13.952;100.608;2023-12-20T00:02:11;32.00;;;23.00;;
37169;SDS011;23062;13.952;100.608;2023-12-20T00:06:49;31.00;;;23.00;;
37169;SDS011;23062;13.952;100.608;2023-12-20T00:11:34;30.00;;;22.00;;
37169;SDS011;23062;13.952;100.608;2023-12-20T00:16:12;29.00;;;23.00;;
37169;SDS011;23062;13.952;100.608;2023-12-20T00:20:56;27.00;;;20.00;;
37169;SDS011;23062;13.952;100.608;2023-12-20T00:25:42;35.00;;;25.00;;
37169;SDS011;23062;13.952;100.608;2023-12-20T00:30:21;30.00;;;24.00;;
37169;SDS011;23062;13.952;100.608;2023-12-20T00:35:06;32.00;;;25.00;;
37169;SDS011;23062;13.952;100.608;2023-12-20T00:39:50;32.00;;;25.00;;
37169;SDS011;23062;13.952;100.608;2023-12-20T00:44:35;26.00;;;19.00;;
37169;SDS011;23062;13.952;100.608;2023-12-20T00:49:20;27.00;;;19.00;;
37169;SDS011;23062;13.952;100.608;2023-12-20T00:54:03;22.00;;;16.00;;
37169;SDS011;23062;13.952;100.608;2023-12-20T00:58:45;22.00;;;16.00;;
37169;SDS011;23062;13.952;100.608;2023-12-20T01:03:30;21.00;;;15.00;;
37169;SDS011;23062;13.952;100.608;2023-12-20T01:08:14;24.00;;;17.00;;
37169;SDS011;23062;13.952;100.608;2023-12-20T01:13:00;18.00;;;13.00;;
37169;SDS011;23062;13.952;100.608;2023-12-20T01:17:45;19.00;;;15.00;;
37169;SDS011;23062;13.952;100.608;2023-12-20T01:22:28;20.00;;;16.00;;
37169;SDS011;23062;13.952;100.608;2023-12-20T01:27:13;22.00;;;16.00;;
37169;SDS011;23062;13.952;100.608;2023-12-20T01:41:30;18.00;;;13.00;;
37169;SDS011;23062;13.952;100.608;2023-12-20T01:46:19;18.00;;;14.00;;
37169;SDS011;23062;13.952;100.608;2023-12-20T01:51:06;17.00;;;12.00;;
37169;SDS011;23062;13.952;100.608;2023-12-20T01:55:50;17.00;;;12.00;;
37169;SDS011;23062;13.952;100.608;2023-12-20T02:00:37;16.00;;;12.00;;
37169;SDS011;23062;13.952;100.608;2023-12-20T02:05:25;17.00;;;12.00;;
37169;SDS011;23062;13.952;100.608;2023-12-20T02:10:12;16.00;;;11.00;;
37169;SDS011;23062;13.952;100.608;2023-12-20T02:14:51;18.00;;;13.00;;
37169;SDS011;23062;13.952;100.608;2023-12-20T02:19:29;17.00;;;12.00;;
37169;SDS011;23062;13.952;100.608;2023-12-20T02:24:12;17.00;;;13.00;;
37169;SDS011;23062;13.952;100.608;2023-12-20T02:28:57;21.00;;;16.00;;
37169;SDS011;23062;13.952;100.608;2023-12-20T02:33:36;23.00;;;17.00;;
37169;SDS011;23062;13.952;100.608;2023-12-20T02:38:21;18.00;;;14.00;;
37169;SDS011;23062;13.952;100.608;2023-12-20T02:43:06;19.00;;;13.00;;
37169;SDS011;23062;13.952;100.608;2023-12-20T02:47:48;20.00;;;14.00;;
37169;SDS011;23062;13.952;100.608;2023-12-20T02:52:37;23.00;;;18.00;;
37169;SDS011;23062;13.952;100.608;2023-12-20T03:02:15;27.07;;;20.53;;
37169;SDS011;23062;13.952;100.608;2023-12-20T03:06:55;34.00;;;27.00;;
37169;SDS011;23062;13.952;100.608;2023-12-20T03:11:33;35.00;;;25.00;;
37169;SDS011;23062;13.952;100.608;2023-12-20T03:16:20;32.00;;;24.00;;
37169;SDS011;23062;13.952;100.608;2023-12-20T03:21:06;27.00;;;21.00;;
37169;SDS011;23062;13.952;100.608;2023-12-20T03:25:47;25.00;;;19.00;;
37169;SDS011;23062;13.952;100.608;2023-12-20T03:30:24;22.00;;;16.00;;
37169;SDS011;23062;13.952;100.608;2023-12-20T03:35:08;20.00;;;14.00;;
37169;SDS011;23062;13.952;100.608;2023-12-20T03:39:44;17.00;;;13.00;;
37169;SDS011;23062;13.952;100.608;2023-12-20T03:44:30;20.00;;;14.00;;
37169;SDS011;23062;13.952;100.608;2023-12-20T03:49:11;13.00;;;9.00;;
37169;SDS011;23062;13.952;100.608;2023-12-20T03:53:49;14.00;;;10.00;;
37169;SDS011;23062;13.952;100.608;2023-12-20T03:58:26;12.00;;;9.00;;
37169;SDS011;23062;13.952;100.608;2023-12-20T04:03:11;14.00;;;10.00;;
37169;SDS011;23062;13.952;100.608;2023-12-20T04:08:07;11.00;;;8.00;;
37169;SDS011;23062;13.952;100.608;2023-12-20T04:17:41;11.00;;;8.00;;
37169;SDS011;23062;13.952;100.608;2023-12-20T04:22:28;12.00;;;8.00;;
37169;SDS011;23062;13.952;100.608;2023-12-20T04:27:08;8.00;;;6.00;;
37169;SDS011;23062;13.952;100.608;2023-12-20T04:31:53;9.00;;;6.00;;
37169;SDS011;23062;13.952;100.608;2023-12-20T04:36:38;9.00;;;6.00;;
37169;SDS011;23062;13.952;100.608;2023-12-20T04:41:23;8.40;;;5.60;;
37169;SDS011;23062;13.952;100.608;2023-12-20T04:46:01;9.00;;;6.00;;
37169;SDS011;23062;13.952;100.608;2023-12-20T04:50:39;9.00;;;6.00;;
37169;SDS011;23062;13.952;100.608;2023-12-20T04:55:25;11.00;;;8.00;;
37169;SDS011;23062;13.952;100.608;2023-12-20T05:00:10;9.00;;;7.00;;
37169;SDS011;23062;13.952;100.608;2023-12-20T05:04:57;8.00;;;6.00;;
37169;SDS011;23062;13.952;100.608;2023-12-20T05:09:42;9.00;;;6.00;;
37169;SDS011;23062;13.952;100.608;2023-12-20T05:14:26;10.00;;;7.00;;
37169;SDS011;23062;13.952;100.608;2023-12-20T05:19:11;11.00;;;8.00;;
37169;SDS011;23062;13.952;100.608;2023-12-20T05:23:52;9.00;;;6.00;;
37169;SDS011;23062;13.952;100.608;2023-12-20T05:28:29;10.00;;;7.00;;
37169;SDS011;23062;13.952;100.608;2023-12-20T05:33:10;9.00;;;6.00;;
37169;SDS011;23062;13.952;100.608;2023-12-20T05:37:48;9.00;;;6.00;;
37169;SDS011;23062;13.952;100.608;2023-12-20T05:42:25;9.00;;;6.00;;
37169;SDS011;23062;13.952;100.608;2023-12-20T05:47:10;10.00;;;7.00;;
37169;SDS011;23062;13.952;100.608;2023-12-20T05:51:54;9.00;;;6.00;;
37169;SDS011;23062;13.952;100.608;2023-12-20T05:56:40;8.00;;;6.00;;
37169;SDS011;23062;13.952;100.608;2023-12-20T06:01:17;9.00;;;6.00;;
37169;SDS011;23062;13.952;100.608;2023-12-20T06:05:56;10.00;;;7.00;;
37169;SDS011;23062;13.952;100.608;2023-12-20T06:10:40;8.00;;;6.00;;
37169;SDS011;23062;13.952;100.608;2023-12-20T06:15:22;8.40;;;5.60;;
37169;SDS011;23062;13.952;100.608;2023-12-20T06:20:07;5.00;;;4.00;;
37169;SDS011;23062;13.952;100.608;2023-12-20T06:24:52;8.00;;;6.00;;
37169;SDS011;23062;13.952;100.608;2023-12-20T06:29:36;10.00;;;7.00;;
37169;SDS011;23062;13.952;100.608;2023-12-20T06:34:14;9.00;;;6.00;;
37169;SDS011;23062;13.952;100.608;2023-12-20T06:39:00;10.00;;;7.00;;
37169;SDS011;23062;13.952;100.608;2023-12-20T06:43:38;8.00;;;6.00;;
37169;SDS011;23062;13.952;100.608;2023-12-20T06:48:22;9.00;;;6.00;;
37169;SDS011;23062;13.952;100.608;2023-12-20T06:53:07;8.00;;;5.00;;
37169;SDS011;23062;13.952;100.608;2023-12-20T06:57:52;9.00;;;6.00;;
37169;SDS011;23062;13.952;100.608;2023-12-20T07:02:29;9.00;;;6.00;;
37169;SDS011;23062;13.952;100.608;2023-12-20T07:07:10;6.00;;;4.00;;
37169;SDS011;23062;13.952;100.608;2023-12-20T07:11:48;8.00;;;5.00;;
37169;SDS011;23062;13.952;100.608;2023-12-20T07:16:33;7.00;;;5.00;;
37169;SDS011;23062;13.952;100.608;2023-12-20T07:21:19;7.00;;;5.00;;
37169;SDS011;23062;13.952;100.608;2023-12-20T07:25:58;8.00;;;5.00;;
37169;SDS011;23062;13.952;100.608;2023-12-20T07:30:43;9.00;;;6.00;;
37169;SDS011;23062;13.952;100.608;2023-12-20T07:35:26;8.00;;;6.00;;
37169;SDS011;23062;13.952;100.608;2023-12-20T07:40:05;8.00;;;5.00;;
37169;SDS011;23062;13.952;100.608;2023-12-20T07:44:51;8.00;;;5.00;;
37169;SDS011;23062;13.952;100.608;2023-12-20T07:49:35;8.00;;;5.00;;
37169;SDS011;23062;13.952;100.608;2023-12-20T07:54:20;8.00;;;5.00;;
37169;SDS011;23062;13.952;100.608;2023-12-20T07:59:03;6.00;;;4.00;;
37169;SDS011;23062;13.952;100.608;2023-12-20T08:03:48;7.00;;;5.00;;
37169;SDS011;23062;13.952;100.608;2023-12-20T08:08:33;6.00;;;4.00;;
37169;SDS011;23062;13.952;100.608;2023-12-20T08:13:17;8.00;;;5.00;;
37169;SDS011;23062;13.952;100.608;2023-12-20T08:17:57;7.00;;;5.00;;
37169;SDS011;23062;13.952;100.608;2023-12-20T08:22:42;5.00;;;4.00;;
37169;SDS011;23062;13.952;100.608;2023-12-20T08:27:27;6.00;;;4.00;;
37169;SDS011;23062;13.952;100.608;2023-12-20T08:32:05;7.00;;;4.00;;
37169;SDS011;23062;13.952;100.608;2023-12-20T08:36:53;7.00;;;5.00;;
37169;SDS011;23062;13.952;100.608;2023-12-20T08:41:38;8.00;;;5.00;;
37169;SDS011;23062;13.952;100.608;2023-12-20T08:46:22;7.00;;;5.00;;
37169;SDS011;23062;13.952;100.608;2023-12-20T08:51:07;8.00;;;5.00;;
37169;SDS011;23062;13.952;100.608;2023-12-20T08:55:46;7.00;;;5.00;;
37169;SDS011;23062;13.952;100.608;2023-12-20T09:00:22;7.00;;;5.00;;
37169;SDS011;23062;13.952;100.608;2023-12-20T09:05:07;9.33;;;6.53;;
37169;SDS011;23062;13.952;100.608;2023-12-20T09:09:46;7.00;;;5.00;;
37169;SDS011;23062;13.952;100.608;2023-12-20T09:14:31;7.00;;;5.00;;
37169;SDS011;23062;13.952;100.608;2023-12-20T09:19:17;8.00;;;5.00;;
37169;SDS011;23062;13.952;100.608;2023-12-20T09:23:55;6.00;;;4.00;;
37169;SDS011;23062;13.952;100.608;2023-12-20T09:28:38;9.00;;;6.00;;
37169;SDS011;23062;13.952;100.608;2023-12-20T09:33:23;7.00;;;5.00;;
37169;SDS011;23062;13.952;100.608;2023-12-20T09:38:08;6.00;;;4.00;;
37169;SDS011;23062;13.952;100.608;2023-12-20T09:47:36;5.00;;;4.00;;
37169;SDS011;23062;13.952;100.608;2023-12-20T09:52:21;8.00;;;5.00;;
37169;SDS011;23062;13.952;100.608;2023-12-20T09:56:58;7.00;;;5.00;;
37169;SDS011;23062;13.952;100.608;2023-12-20T10:01:36;9.00;;;6.00;;
37169;SDS011;23062;13.952;100.608;2023-12-20T10:06:23;8.00;;;6.00;;
37169;SDS011;23062;13.952;100.608;2023-12-20T10:11:06;10.00;;;7.00;;
37169;SDS011;23062;13.952;100.608;2023-12-20T10:15:50;8.00;;;6.00;;
37169;SDS011;23062;13.952;100.608;2023-12-20T10:20:35;10.00;;;7.00;;
37169;SDS011;23062;13.952;100.608;2023-12-20T10:25:20;11.00;;;8.00;;
37169;SDS011;23062;13.952;100.608;2023-12-20T10:30:03;9.00;;;7.00;;
37169;SDS011;23062;13.952;100.608;2023-12-20T10:34:45;14.00;;;10.00;;
37169;SDS011;23062;13.952;100.608;2023-12-20T10:39:23;12.00;;;9.00;;
37169;SDS011;23062;13.952;100.608;2023-12-20T10:44:08;12.00;;;8.00;;
37169;SDS011;23062;13.952;100.608;2023-12-20T10:48:47;9.00;;;7.00;;
37169;SDS011;23062;13.952;100.608;2023-12-20T10:53:27;12.00;;;9.00;;
37169;SDS011;23062;13.952;100.608;2023-12-20T10:58:11;13.00;;;9.00;;
37169;SDS011;23062;13.952;100.608;2023-12-20T11:02:56;12.00;;;8.00;;
37169;SDS011;23062;13.952;100.608;2023-12-20T11:07:46;12.00;;;9.00;;
37169;SDS011;23062;13.952;100.608;2023-12-20T11:12:32;14.00;;;10.00;;
37169;SDS011;23062;13.952;100.608;2023-12-20T11:17:23;10.00;;;7.00;;
37169;SDS011;23062;13.952;100.608;2023-12-20T11:22:07;14.00;;;10.00;;
37169;SDS011;23062;13.952;100.608;2023-12-20T11:26:55;15.00;;;11.00;;
37169;SDS011;23062;13.952;100.608;2023-12-20T11:31:30;16.00;;;12.00;;
37169;SDS011;23062;13.952;100.608;2023-12-20T11:36:16;20.00;;;14.00;;
37169;SDS011;23062;13.952;100.608;2023-12-20T11:40:57;18.00;;;14.00;;
37169;SDS011;23062;13.952;100.608;2023-12-20T11:45:48;18.00;;;13.00;;
37169;SDS011;23062;13.952;100.608;2023-12-20T11:50:26;17.00;;;13.00;;
37169;SDS011;23062;13.952;100.608;2023-12-20T11:55:11;17.00;;;13.00;;
37169;SDS011;23062;13.952;100.608;2023-12-20T11:59:48;18.00;;;13.00;;
37169;SDS011;23062;13.952;100.608;2023-12-20T12:04:26;24.00;;;17.00;;
37169;SDS011;23062;13.952;100.608;2023-12-20T12:09:02;23.00;;;17.00;;
37169;SDS011;23062;13.952;100.608;2023-12-20T12:13:47;27.00;;;20.00;;
37169;SDS011;23062;13.952;100.608;2023-12-20T12:18:31;27.00;;;21.00;;
37169;SDS011;23062;13.952;100.608;2023-12-20T12:23:12;27.00;;;20.00;;
37169;SDS011;23062;13.952;100.608;2023-12-20T12:27:50;29.00;;;21.00;;
37169;SDS011;23062;13.952;100.608;2023-12-20T12:32:35;30.00;;;22.00;;
37169;SDS011;23062;13.952;100.608;2023-12-20T12:37:19;24.00;;;17.00;;
37169;SDS011;23062;13.952;100.608;2023-12-20T12:42:02;21.47;;;16.80;;
37169;SDS011;23062;13.952;100.608;2023-12-20T12:46:46;25.00;;;18.00;;
37169;SDS011;23062;13.952;100.608;2023-12-20T12:51:34;23.00;;;17.00;;
37169;SDS011;23062;13.952;100.608;2023-12-20T12:56:19;21.00;;;16.00;;
37169;SDS011;23062;13.952;100.608;2023-12-20T13:01:06;25.00;;;18.00;;
37169;SDS011;23062;13.952;100.608;2023-12-20T13:05:50;21.00;;;15.00;;
37169;SDS011;23062;13.952;100.608;2023-12-20T13:10:33;22.00;;;16.00;;
37169;SDS011;23062;13.952;100.608;2023-12-20T13:15:18;19.00;;;14.00;;
37169;SDS011;23062;13.952;100.608;2023-12-20T13:20:02;18.00;;;14.00;;
37169;SDS011;23062;13.952;100.608;2023-12-20T13:24:48;18.00;;;13.00;;
37169;SDS011;23062;13.952;100.608;2023-12-20T13:29:33;16.00;;;11.00;;
37169;SDS011;23062;13.952;100.608;2023-12-20T13:34:10;16.00;;;11.00;;
37169;SDS011;23062;13.952;100.608;2023-12-20T13:38:55;13.00;;;10.00;;
37169;SDS011;23062;13.952;100.608;2023-12-20T13:43:33;13.00;;;10.00;;
37169;SDS011;23062;13.952;100.608;2023-12-20T13:48:18;12.00;;;8.00;;
37169;SDS011;23062;13.952;100.608;2023-12-20T13:53:03;14.00;;;10.00;;
37169;SDS011;23062;13.952;100.608;2023-12-20T13:57:46;14.00;;;10.00;;
37169;SDS011;23062;13.952;100.608;2023-12-20T14:02:23;13.00;;;9.00;;
37169;SDS011;23062;13.952;100.608;2023-12-20T14:07:09;13.00;;;9.00;;
37169;SDS011;23062;13.952;100.608;2023-12-20T14:11:52;12.00;;;8.00;;
37169;SDS011;23062;13.952;100.608;2023-12-20T14:16:36;11.00;;;8.00;;
37169;SDS011;23062;13.952;100.608;2023-12-20T14:21:14;12.00;;;8.00;;
37169;SDS011;23062;13.952;100.608;2023-12-20T14:26:00;12.00;;;9.00;;
37169;SDS011;23062;13.952;100.608;2023-12-20T14:30:52;10.00;;;7.00;;
37169;SDS011;23062;13.952;100.608;2023-12-20T14:36:02;11.00;;;8.00;;
37169;SDS011;23062;13.952;100.608;2023-12-20T14:40:35;13.07;;;9.33;;
37169;SDS011;23062;13.952;100.608;2023-12-20T14:45:22;13.00;;;10.00;;
37169;SDS011;23062;13.952;100.608;2023-12-20T14:50:09;13.00;;;9.00;;
37169;SDS011;23062;13.952;100.608;2023-12-20T14:54:55;12.00;;;9.00;;
37169;SDS011;23062;13.952;100.608;2023-12-20T14:59:34;12.00;;;9.00;;
37169;SDS011;23062;13.952;100.608;2023-12-20T15:04:19;12.00;;;8.00;;
37169;SDS011;23062;13.952;100.608;2023-12-20T15:09:04;11.00;;;8.00;;
37169;SDS011;23062;13.952;100.608;2023-12-20T15:13:45;12.00;;;9.00;;
37169;SDS011;23062;13.952;100.608;2023-12-20T15:18:38;11.00;;;8.00;;
37169;SDS011;23062;13.952;100.608;2023-12-20T15:23:27;12.00;;;9.00;;
37169;SDS011;23062;13.952;100.608;2023-12-20T15:28:12;12.00;;;9.00;;
37169;SDS011;23062;13.952;100.608;2023-12-20T15:32:57;11.00;;;8.00;;
37169;SDS011;23062;13.952;100.608;2023-12-20T15:37:43;13.00;;;10.00;;
37169;SDS011;23062;13.952;100.608;2023-12-20T15:42:20;10.00;;;7.00;;
37169;SDS011;23062;13.952;100.608;2023-12-20T15:46:57;14.00;;;10.00;;
37169;SDS011;23062;13.952;100.608;2023-12-20T15:51:42;13.00;;;9.00;;
37169;SDS011;23062;13.952;100.608;2023-12-20T15:56:21;10.27;;;7.47;;
37169;SDS011;23062;13.952;100.608;2023-12-20T16:00:59;11.00;;;8.00;;
37169;SDS011;23062;13.952;100.608;2023-12-20T16:05:36;13.00;;;9.00;;
37169;SDS011;23062;13.952;100.608;2023-12-20T16:10:21;12.00;;;8.00;;
37169;SDS011;23062;13.952;100.608;2023-12-20T16:14:57;13.00;;;9.00;;
37169;SDS011;23062;13.952;100.608;2023-12-20T16:19:39;13.00;;;9.00;;
37169;SDS011;23062;13.952;100.608;2023-12-20T16:24:18;12.00;;;8.00;;
37169;SDS011;23062;13.952;100.608;2023-12-20T16:29:01;12.00;;;8.00;;
37169;SDS011;23062;13.952;100.608;2023-12-20T16:33:41;14.00;;;10.00;;
37169;SDS011;23062;13.952;100.608;2023-12-20T16:38:19;13.00;;;10.00;;
37169;SDS011;23062;13.952;100.608;2023-12-20T16:42:57;15.00;;;10.00;;
37169;SDS011;23062;13.952;100.608;2023-12-20T16:47:34;15.00;;;11.00;;
37169;SDS011;23062;13.952;100.608;2023-12-20T16:52:11;12.00;;;9.00;;
37169;SDS011;23062;13.952;100.608;2023-12-20T16:56:57;12.00;;;9.00;;
37169;SDS011;23062;13.952;100.608;2023-12-20T17:01:42;14.00;;;10.00;;
37169;SDS011;23062;13.952;100.608;2023-12-20T17:06:24;12.00;;;9.00;;
37169;SDS011;23062;13.952;100.608;2023-12-20T17:11:05;12.00;;;9.00;;
37169;SDS011;23062;13.952;100.608;2023-12-20T17:15:49;13.00;;;10.00;;
37169;SDS011;23062;13.952;100.608;2023-12-20T17:20:26;14.00;;;11.00;;
37169;SDS011;23062;13.952;100.608;2023-12-20T17:25:02;13.00;;;9.00;;
37169;SDS011;23062;13.952;100.608;2023-12-20T17:29:42;11.00;;;8.00;;
37169;SDS011;23062;13.952;100.608;2023-12-20T17:34:26;13.00;;;9.00;;
37169;SDS011;23062;13.952;100.608;2023-12-20T17:39:03;12.00;;;8.00;;
37169;SDS011;23062;13.952;100.608;2023-12-20T17:43:43;11.00;;;8.00;;
37169;SDS011;23062;13.952;100.608;2023-12-20T17:48:29;16.00;;;11.00;;
37169;SDS011;23062;13.952;100.608;2023-12-20T17:53:05;15.00;;;11.00;;
37169;SDS011;23062;13.952;100.608;2023-12-20T17:57:48;13.00;;;10.00;;
37169;SDS011;23062;13.952;100.608;2023-12-20T18:02:31;13.00;;;9.00;;
37169;SDS011;23062;13.952;100.608;2023-12-20T18:07:17;13.00;;;9.00;;
37169;SDS011;23062;13.952;100.608;2023-12-20T18:12:01;12.00;;;9.00;;
37169;SDS011;23062;13.952;100.608;2023-12-20T18:16:47;14.00;;;10.00;;
37169;SDS011;23062;13.952;100.608;2023-12-20T18:21:33;14.00;;;10.00;;
37169;SDS011;23062;13.952;100.608;2023-12-20T18:26:18;12.00;;;9.00;;
37169;SDS011;23062;13.952;100.608;2023-12-20T18:30:57;11.00;;;8.00;;
37169;SDS011;23062;13.952;100.608;2023-12-20T18:35:49;11.00;;;8.00;;
37169;SDS011;23062;13.952;100.608;2023-12-20T18:40:29;12.00;;;8.00;;
37169;SDS011;23062;13.952;100.608;2023-12-20T18:45:13;11.00;;;8.00;;
37169;SDS011;23062;13.952;100.608;2023-12-20T18:49:54;12.00;;;8.00;;
37169;SDS011;23062;13.952;100.608;2023-12-20T18:54:38;9.00;;;7.00;;
37169;SDS011;23062;13.952;100.608;2023-12-20T18:59:24;10.00;;;7.00;;
37169;SDS011;23062;13.952;100.608;2023-12-20T19:04:08;12.00;;;9.00;;
37169;SDS011;23062;13.952;100.608;2023-12-20T19:08:52;9.00;;;6.00;;
37169;SDS011;23062;13.952;100.608;2023-12-20T19:13:31;10.00;;;7.00;;
37169;SDS011;23062;13.952;100.608;2023-12-20T19:18:09;9.00;;;6.00;;
37169;SDS011;23062;13.952;100.608;2023-12-20T19:22:54;8.00;;;6.00;;
37169;SDS011;23062;13.952;100.608;2023-12-20T19:27:38;9.00;;;6.00;;
37169;SDS011;23062;13.952;100.608;2023-12-20T19:32:22;9.00;;;6.00;;
37169;SDS011;23062;13.952;100.608;2023-12-20T19:36:59;10.00;;;7.00;;
37169;SDS011;23062;13.952;100.608;2023-12-20T19:41:44;10.00;;;7.00;;
37169;SDS011;23062;13.952;100.608;2023-12-20T19:46:31;6.00;;;4.00;;
37169;SDS011;23062;13.952;100.608;2023-12-20T19:51:16;8.00;;;5.00;;
37169;SDS011;23062;13.952;100.608;2023-12-20T19:56:02;8.00;;;5.00;;
37169;SDS011;23062;13.952;100.608;2023-12-20T20:00:50;8.40;;;5.60;;
37169;SDS011;23062;13.952;100.608;2023-12-20T20:05:32;9.00;;;6.00;;
37169;SDS011;23062;13.952;100.608;2023-12-20T20:10:16;8.00;;;5.00;;
37169;SDS011;23062;13.952;100.608;2023-12-20T20:14:53;7.00;;;5.00;;
37169;SDS011;23062;13.952;100.608;2023-12-20T20:19:38;7.00;;;5.00;;
37169;SDS011;23062;13.952;100.608;2023-12-20T20:24:23;9.00;;;6.00;;
37169;SDS011;23062;13.952;100.608;2023-12-20T20:29:02;9.00;;;6.00;;
37169;SDS011;23062;13.952;100.608;2023-12-20T20:33:48;8.00;;;6.00;;
37169;SDS011;23062;13.952;100.608;2023-12-20T20:38:26;10.00;;;7.00;;
37169;SDS011;23062;13.952;100.608;2023-12-20T20:43:11;9.00;;;6.00;;
37169;SDS011;23062;13.952;100.608;2023-12-20T20:47:52;10.00;;;7.00;;
37169;SDS011;23062;13.952;100.608;2023-12-20T20:52:38;10.00;;;7.00;;
37169;SDS011;23062;13.952;100.608;2023-12-20T20:57:15;7.00;;;5.00;;
37169;SDS011;23062;13.952;100.608;2023-12-20T21:02:01;9.00;;;6.00;;
37169;SDS011;23062;13.952;100.608;2023-12-20T21:06:45;8.00;;;6.00;;
37169;SDS011;23062;13.952;100.608;2023-12-20T21:11:29;7.00;;;5.00;;
37169;SDS011;23062;13.952;100.608;2023-12-20T21:16:13;9.00;;;6.00;;
37169;SDS011;23062;13.952;100.608;2023-12-20T21:20:57;9.00;;;6.00;;
37169;SDS011;23062;13.952;100.608;2023-12-20T21:25:36;9.00;;;6.00;;
37169;SDS011;23062;13.952;100.608;2023-12-20T21:30:22;9.00;;;6.00;;
37169;SDS011;23062;13.952;100.608;2023-12-20T21:35:04;9.00;;;7.00;;
37169;SDS011;23062;13.952;100.608;2023-12-20T21:39:45;11.00;;;8.00;;
37169;SDS011;23062;13.952;100.608;2023-12-20T21:44:30;11.00;;;8.00;;
37169;SDS011;23062;13.952;100.608;2023-12-20T21:49:07;13.00;;;9.00;;
37169;SDS011;23062;13.952;100.608;2023-12-20T21:53:50;11.00;;;8.00;;
37169;SDS011;23062;13.952;100.608;2023-12-20T21:58:33;11.00;;;8.00;;
37169;SDS011;23062;13.952;100.608;2023-12-20T22:03:20;8.00;;;6.00;;
37169;SDS011;23062;13.952;100.608;2023-12-20T22:08:00;12.00;;;8.00;;
37169;SDS011;23062;13.952;100.608;2023-12-20T22:12:45;12.00;;;9.00;;
37169;SDS011;23062;13.952;100.608;2023-12-20T22:17:24;14.00;;;10.00;;
37169;SDS011;23062;13.952;100.608;2023-12-20T22:22:10;10.00;;;7.00;;
37169;SDS011;23062;13.952;100.608;2023-12-20T22:26:54;12.00;;;8.00;;
37169;SDS011;23062;13.952;100.608;2023-12-20T22:31:39;9.00;;;6.00;;
37169;SDS011;23062;13.952;100.608;2023-12-20T22:36:23;10.00;;;7.00;;
37169;SDS011;23062;13.952;100.608;2023-12-20T22:41:08;11.00;;;7.00;;
37169;SDS011;23062;13.952;100.608;2023-12-20T22:45:52;9.00;;;7.00;;
37169;SDS011;23062;13.952;100.608;2023-12-20T22:50:30;8.00;;;6.00;;
37169;SDS011;23062;13.952;100.608;2023-12-20T22:55:16;8.00;;;6.00;;
37169;SDS011;23062;13.952;100.608;2023-12-20T23:00:00;10.00;;;7.00;;
37169;SDS011;23062;13.952;100.608;2023-12-20T23:04:45;8.00;;;6.00;;
37169;SDS011;23062;13.952;100.608;2023-12-20T23:09:27;8.00;;;6.00;;
37169;SDS011;23062;13.952;100.608;2023-12-20T23:14:11;8.00;;;6.00;;
37169;SDS011;23062;13.952;100.608;2023-12-20T23:18:47;11.00;;;8.00;;
37169;SDS011;23062;13.952;100.608;2023-12-20T23:23:31;8.00;;;6.00;;
37169;SDS011;23062;13.952;100.608;2023-12-20T23:28:15;9.00;;;6.00;;
37169;SDS011;23062;13.952;100.608;2023-12-20T23:32:53;11.00;;;8.00;;
37169;SDS011;23062;13.952;100.608;2023-12-20T23:37:37;13.00;;;10.00;;
37169;SDS011;23062;13.952;100.608;2023-12-20T23:42:22;11.00;;;8.00;;
37169;SDS011;23062;13.952;100.608;2023-12-20T23:47:01;10.00;;;7.00;;
37169;SDS011;23062;13.952;100.608;2023-12-20T23:51:39;10.00;;;8.00;;
37169;SDS011;23062;13.952;100.608;2023-12-20T23:56:23;26.00;;;19.00;;
